Time;durP1;ratioP1;P1;durP2;ratioP2;P2;SDS_P1;SDS_P2;PMS_P1;PMS_P2;Temp;Humidity;BMP_temperature;BMP_pressure;BME280_temperature;BME280_humidity;BME280_pressure;Samples;Min_cycle;Max_cycle;Signal;HPM_P1;HPM_P2
2023/08/28 00:02:21;;;;;;;1.92;1.08;;;20.00;79.90;;;;;;4206625;28;20186;-46
2023/08/28 00:05:02;;;;;;;2.38;1.10;;;20.00;79.90;;;;;;4206330;28;20047;-45
2023/08/28 00:07:43;;;;;;;1.58;1.20;;;20.00;79.90;;;;;;4205255;28;20067;-46
2023/08/28 00:10:25;;;;;;;0.95;0.95;;;20.00;79.80;;;;;;4205560;28;20092;-44
2023/08/28 00:13:06;;;;;;;1.75;1.08;;;20.00;80.00;;;;;;4206291;28;20163;-43
2023/08/28 00:15:46;;;;;;;3.03;1.00;;;20.00;80.30;;;;;;4197734;28;20277;-42
2023/08/28 00:18:29;;;;;;;1.88;1.13;;;20.00;80.30;;;;;;4206144;28;20383;-47
2023/08/28 00:21:10;;;;;;;2.00;1.23;;;20.00;80.20;;;;;;4205394;28;20518;-47
2023/08/28 00:23:51;;;;;;;2.53;1.00;;;20.00;80.30;;;;;;4205422;28;20418;-47
2023/08/28 00:26:32;;;;;;;1.23;1.00;;;20.00;80.30;;;;;;4187701;28;20514;-48
2023/08/28 00:29:13;;;;;;;4.53;1.35;;;20.00;80.20;;;;;;4189323;28;20059;-48
2023/08/28 00:31:54;;;;;;;3.10;0.82;;;20.00;80.20;;;;;;4188285;28;20399;-45
2023/08/28 00:34:36;;;;;;;0.90;0.90;;;20.00;80.20;;;;;;4193400;28;20189;-43
2023/08/28 00:37:17;;;;;;;1.23;0.85;;;20.00;80.20;;;;;;4205292;28;20051;-44
2023/08/28 00:39:58;;;;;;;2.95;0.95;;;19.90;80.10;;;;;;4205149;28;20174;-44
2023/08/28 00:42:40;;;;;;;3.42;1.25;;;19.90;80.10;;;;;;4204565;28;20092;-45
2023/08/28 00:45:21;;;;;;;2.13;1.08;;;20.00;80.20;;;;;;4204855;28;20806;-47
2023/08/28 00:48:03;;;;;;;3.28;1.10;;;19.90;80.10;;;;;;4205741;28;20058;-45
2023/08/28 00:50:47;;;;;;;1.23;0.85;;;19.90;80.10;;;;;;4203928;28;20051;-47
2023/08/28 00:53:28;;;;;;;1.75;0.90;;;19.90;79.90;;;;;;4204483;28;20058;-48
2023/08/28 00:56:09;;;;;;;1.40;0.90;;;19.90;79.80;;;;;;4188037;28;20059;-45
2023/08/28 00:58:50;;;;;;;;;;;19.90;79.90;;;;;;4188312;28;20405;-45
2023/08/28 01:01:31;;;;;;;0.80;0.80;;;19.90;80.00;;;;;;4176527;28;19930;-45
2023/08/28 01:04:12;;;;;;;2.50;0.95;;;19.90;80.30;;;;;;4188152;28;20190;-47
2023/08/28 01:07:00;;;;;;;1.20;0.93;;;19.90;80.20;;;;;;4205222;28;20124;-48
2023/08/28 01:09:51;;;;;;;2.33;1.05;;;19.90;80.10;;;;;;4186463;28;20091;-47
2023/08/28 01:12:47;;;;;;;1.65;0.98;;;19.90;80.10;;;;;;4187154;28;20052;-46
2023/08/28 01:15:32;;;;;;;0.95;0.93;;;19.90;80.20;;;;;;4193441;28;20059;-44
2023/08/28 01:18:14;;;;;;;1.40;1.00;;;19.90;80.20;;;;;;4204073;28;20051;-42
2023/08/28 01:20:55;;;;;;;4.45;1.35;;;19.90;80.10;;;;;;4203047;28;20096;-48
2023/08/28 01:23:39;;;;;;;;;;;19.90;80.10;;;;;;4204577;28;20055;-49
2023/08/28 01:26:24;;;;;;;2.20;0.80;;;19.90;80.10;;;;;;4190323;28;19931;-49
2023/08/28 01:29:05;;;;;;;1.38;1.27;;;19.90;80.40;;;;;;4203150;28;20063;-50
2023/08/28 01:31:46;;;;;;;3.22;0.93;;;19.90;80.20;;;;;;4197478;28;20612;-51
2023/08/28 01:34:27;;;;;;;3.47;1.17;;;19.90;80.20;;;;;;4188724;28;20058;-51
2023/08/28 01:37:13;;;;;;;2.15;1.00;;;19.80;80.00;;;;;;4203126;28;20059;-50
2023/08/28 01:40:01;;;;;;;2.10;0.90;;;19.80;79.90;;;;;;4203917;28;20051;-50
2023/08/28 01:42:47;;;;;;;2.13;0.90;;;19.80;79.90;;;;;;4204690;28;20055;-50
2023/08/28 01:45:29;;;;;;;1.55;1.10;;;19.80;79.90;;;;;;4202948;28;20190;-50
2023/08/28 01:48:10;;;;;;;;;;;19.80;79.80;;;;;;4205212;28;20055;-48
2023/08/28 01:50:51;;;;;;;3.00;0.90;;;19.80;79.90;;;;;;4204967;28;19931;-50
2023/08/28 01:53:32;;;;;;;2.28;1.20;;;19.80;80.20;;;;;;4189287;28;20055;-52
2023/08/28 01:56:17;;;;;;;2.67;1.10;;;19.80;79.90;;;;;;4204231;28;20086;-44
2023/08/28 01:59:02;;;;;;;1.92;1.00;;;19.80;79.70;;;;;;4202791;28;20055;-43
2023/08/28 02:01:43;;;;;;;2.08;1.27;;;19.80;79.70;;;;;;4199932;28;20105;-43
2023/08/28 02:04:24;;;;;;;1.05;0.85;;;19.80;79.60;;;;;;4203432;28;20078;-43
2023/08/28 02:07:05;;;;;;;1.85;0.88;;;19.80;79.70;;;;;;4202990;28;20047;-49
2023/08/28 02:09:47;;;;;;;1.33;1.23;;;19.80;79.80;;;;;;4203030;28;20067;-48
2023/08/28 02:12:28;;;;;;;1.42;1.13;;;19.80;79.90;;;;;;4203993;28;20407;-45
2023/08/28 02:15:11;;;;;;;1.20;1.20;;;19.80;79.90;;;;;;4204259;28;20510;-47
2023/08/28 02:17:52;;;;;;;3.47;1.20;;;19.80;80.00;;;;;;4203358;28;20051;-49
2023/08/28 02:20:34;;;;;;;;;;;19.80;79.90;;;;;;4203917;28;20039;-45
2023/08/28 02:23:15;;;;;;;4.90;1.27;;;19.80;79.90;;;;;;4204054;28;20002;-47
2023/08/28 02:25:57;;;;;;;1.95;1.27;;;19.80;80.30;;;;;;4203877;28;20456;-49
2023/08/28 02:28:39;;;;;;;2.63;1.00;;;19.80;80.00;;;;;;4204140;28;20055;-44
2023/08/28 02:31:21;;;;;;;1.77;1.20;;;19.80;79.90;;;;;;4202807;28;20051;-47
2023/08/28 02:34:02;;;;;;;2.90;1.08;;;19.80;79.90;;;;;;4186664;28;20419;-44
2023/08/28 02:36:43;;;;;;;3.00;1.48;;;19.80;79.80;;;;;;4197613;28;20651;-48
2023/08/28 02:39:25;;;;;;;1.10;1.00;;;19.80;79.80;;;;;;4186018;28;20059;-46
2023/08/28 02:42:06;;;;;;;1.60;1.10;;;19.80;79.70;;;;;;4187728;28;20117;-46
2023/08/28 02:44:47;;;;;;;1.10;1.10;;;19.80;79.70;;;;;;4174878;28;20129;-44
2023/08/28 02:47:31;;;;;;;2.20;1.17;;;19.80;79.70;;;;;;4185861;28;20055;-43
2023/08/28 02:50:12;;;;;;;1.60;1.00;;;19.80;79.70;;;;;;4189320;28;20055;-44
2023/08/28 02:52:53;;;;;;;1.00;1.00;;;19.80;79.60;;;;;;4190924;28;20486;-46
2023/08/28 02:55:42;;;;;;;0.82;0.60;;;19.80;79.70;;;;;;4203802;28;20048;-47
2023/08/28 02:58:24;;;;;;;1.92;0.90;;;19.80;79.60;;;;;;4202394;28;20505;-47
2023/08/28 03:01:05;;;;;;;1.08;0.88;;;19.70;79.60;;;;;;4201601;28;20097;-47
2023/08/28 03:03:48;;;;;;;1.15;1.10;;;19.70;79.60;;;;;;4202769;28;20067;-47
2023/08/28 03:06:28;;;;;;;1.65;1.08;;;19.70;79.60;;;;;;4190298;28;20125;-47
2023/08/28 03:09:09;;;;;;;1.17;1.10;;;19.70;79.60;;;;;;4213962;28;20133;-48
2023/08/28 03:11:51;;;;;;;1.55;1.27;;;19.70;79.60;;;;;;4174426;28;20047;-47
2023/08/28 03:14:32;;;;;;;;;;;19.70;79.60;;;;;;4186262;28;20052;-47
2023/08/28 03:17:13;;;;;;;1.10;0.97;;;19.70;79.60;;;;;;4185744;28;19932;-49
2023/08/28 03:19:56;;;;;;;2.58;1.17;;;19.70;80.10;;;;;;4189010;28;20077;-48
2023/08/28 03:22:37;;;;;;;3.00;1.20;;;19.70;79.90;;;;;;4177245;28;20052;-48
2023/08/28 03:25:18;;;;;;;3.58;1.27;;;19.70;80.60;;;;;;4182633;28;20080;-51
2023/08/28 03:27:59;;;;;;;1.55;1.13;;;19.70;79.60;;;;;;4187112;28;20055;-49
2023/08/28 03:30:40;;;;;;;1.15;0.98;;;19.70;79.50;;;;;;4196581;28;20051;-51
2023/08/28 03:33:21;;;;;;;2.90;1.50;;;19.60;79.50;;;;;;4203787;28;20047;-52
2023/08/28 03:36:05;;;;;;;2.05;0.80;;;19.60;79.60;;;;;;4203461;28;20407;-48
2023/08/28 03:38:46;;;;;;;2.72;1.00;;;19.60;79.60;;;;;;4199999;28;20051;-52
2023/08/28 03:41:27;;;;;;;0.75;0.75;;;19.60;79.70;;;;;;4202193;28;20042;-52
2023/08/28 03:44:08;;;;;;;3.67;1.20;;;19.60;79.80;;;;;;4202011;28;20055;-53
2023/08/28 03:46:49;;;;;;;2.75;1.33;;;19.60;80.10;;;;;;4190092;28;20055;-51
2023/08/28 03:49:30;;;;;;;1.38;1.17;;;19.60;80.00;;;;;;4202467;28;20055;-52
2023/08/28 03:52:12;;;;;;;2.88;1.00;;;19.60;79.80;;;;;;4205692;28;20105;-57
2023/08/28 03:54:54;;;;;;;3.33;1.40;;;19.60;79.60;;;;;;4204751;28;20055;-49
2023/08/28 03:57:35;;;;;;;1.40;1.20;;;19.60;79.70;;;;;;4203888;28;20082;-50
2023/08/28 04:00:18;;;;;;;5.00;1.40;;;19.60;79.80;;;;;;4206321;28;20054;-47
2023/08/28 04:02:59;;;;;;;2.17;1.02;;;19.60;80.20;;;;;;4206372;28;20074;-47
2023/08/28 04:05:42;;;;;;;2.35;1.40;;;19.50;80.20;;;;;;4206255;28;20047;-49
2023/08/28 04:08:25;;;;;;;1.52;1.40;;;19.50;80.00;;;;;;4205893;28;20893;-48
2023/08/28 04:11:06;;;;;;;2.28;1.20;;;19.50;79.90;;;;;;4188041;28;20056;-48
2023/08/28 04:13:47;;;;;;;;;;;19.50;79.90;;;;;;4200714;28;20055;-49
2023/08/28 04:16:28;;;;;;;2.63;1.40;;;19.50;80.00;;;;;;4204299;28;19927;-49
2023/08/28 04:19:09;;;;;;;2.53;1.40;;;19.50;80.50;;;;;;4204825;28;20063;-50
2023/08/28 04:21:50;;;;;;;2.70;1.50;;;19.50;80.50;;;;;;4205892;28;20059;-50
2023/08/28 04:24:34;;;;;;;2.30;1.20;;;19.50;81.50;;;;;;4204322;28;20055;-48
2023/08/28 04:27:15;;;;;;;4.30;1.77;;;19.40;80.60;;;;;;4206171;28;20055;-49
2023/08/28 04:29:56;;;;;;;3.47;1.52;;;19.50;80.60;;;;;;4205813;28;20170;-48
2023/08/28 04:32:38;;;;;;;3.15;1.90;;;19.40;80.50;;;;;;4206328;28;20070;-48
2023/08/28 04:35:18;;;;;;;3.35;1.70;;;19.50;80.60;;;;;;4191385;28;20396;-47
2023/08/28 04:38:00;;;;;;;1.70;1.60;;;19.40;80.50;;;;;;4186622;28;20093;-51
2023/08/28 04:40:43;;;;;;;2.25;1.55;;;19.40;80.50;;;;;;4187691;28;20408;-50
2023/08/28 04:43:25;;;;;;;2.63;2.50;;;19.40;80.40;;;;;;4187465;28;20115;-49
2023/08/28 04:46:06;;;;;;;3.03;1.60;;;19.40;80.20;;;;;;4187748;28;20062;-49
2023/08/28 04:48:47;;;;;;;;;;;19.40;80.00;;;;;;4189323;28;20052;-50
2023/08/28 04:51:28;;;;;;;2.45;1.35;;;19.40;80.10;;;;;;4188928;28;20018;-50
2023/08/28 04:54:09;;;;;;;1.73;1.63;;;19.40;80.70;;;;;;4181504;28;20059;-45
2023/08/28 04:56:52;;;;;;;3.75;1.45;;;19.50;80.80;;;;;;4205386;28;20407;-50
2023/08/28 04:59:33;;;;;;;1.70;1.20;;;19.50;80.90;;;;;;4204656;28;20055;-51
2023/08/28 05:02:14;;;;;;;1.65;1.40;;;19.60;80.80;;;;;;4204788;28;20593;-47
2023/08/28 05:04:55;;;;;;;1.40;1.27;;;19.60;80.60;;;;;;4204633;28;20181;-49
2023/08/28 05:07:36;;;;;;;1.65;1.02;;;19.60;80.50;;;;;;4188440;28;20097;-47
2023/08/28 05:10:18;;;;;;;1.55;1.45;;;19.50;80.30;;;;;;4196214;28;20105;-47
2023/08/28 05:13:00;;;;;;;1.60;1.50;;;19.50;80.30;;;;;;4204980;28;20058;-48
2023/08/28 05:15:41;;;;;;;2.45;1.30;;;19.50;80.30;;;;;;4202677;28;20182;-52
2023/08/28 05:18:24;;;;;;;4.38;1.63;;;19.50;80.20;;;;;;4205021;28;20055;-50
2023/08/28 05:21:05;;;;;;;1.50;1.40;;;19.50;80.20;;;;;;4215704;28;20559;-53
2023/08/28 05:23:46;;;;;;;1.30;1.20;;;19.50;80.30;;;;;;4187157;28;20133;-50
2023/08/28 05:26:27;;;;;;;3.80;2.33;;;19.50;80.30;;;;;;4187574;28;20575;-48
2023/08/28 05:29:09;;;;;;;4.72;2.80;;;19.50;80.50;;;;;;4187314;28;20051;-50
2023/08/28 05:31:50;;;;;;;2.15;1.63;;;19.60;80.90;;;;;;4189634;28;20802;-44
2023/08/28 05:34:32;;;;;;;1.83;1.73;;;19.60;81.00;;;;;;4187007;28;20487;-47
2023/08/28 05:37:13;;;;;;;1.90;1.50;;;19.60;80.90;;;;;;4203079;28;20055;-47
2023/08/28 05:39:54;;;;;;;1.67;1.58;;;19.60;80.80;;;;;;4187701;28;20056;-44
2023/08/28 05:42:35;;;;;;;1.70;1.48;;;19.60;80.70;;;;;;4197861;28;20189;-47
2023/08/28 05:45:18;;;;;;;3.58;1.70;;;19.70;80.70;;;;;;4190862;28;20055;-48
2023/08/28 05:47:58;;;;;;;3.25;1.70;;;19.70;80.50;;;;;;4203541;28;20085;-51
2023/08/28 05:50:39;;;;;;;2.55;1.60;;;19.70;80.10;;;;;;4203590;28;20051;-49
2023/08/28 05:53:20;;;;;;;1.50;1.40;;;19.70;79.90;;;;;;4203052;28;20047;-48
2023/08/28 05:56:01;;;;;;;3.60;1.65;;;19.70;79.80;;;;;;4203758;28;20055;-51
2023/08/28 05:58:43;;;;;;;3.88;1.70;;;19.70;79.80;;;;;;4203177;28;20181;-51
2023/08/28 06:01:25;;;;;;;;;;;19.60;79.80;;;;;;4202123;28;20454;-49
2023/08/28 06:04:07;;;;;;;1.60;1.50;;;19.60;79.90;;;;;;4203196;28;19927;-49
2023/08/28 06:06:48;;;;;;;1.88;1.55;;;19.60;80.20;;;;;;4203589;28;20051;-48
2023/08/28 06:09:29;;;;;;;2.38;1.60;;;19.60;80.10;;;;;;4201432;28;20058;-50
2023/08/28 06:12:10;;;;;;;2.00;1.35;;;19.60;80.10;;;;;;4204052;28;20514;-50
2023/08/28 06:14:51;;;;;;;2.80;1.73;;;19.60;80.00;;;;;;4203043;28;20047;-50
2023/08/28 06:17:34;;;;;;;3.00;1.27;;;19.50;79.90;;;;;;4203033;28;20051;-50
2023/08/28 06:20:15;;;;;;;4.25;1.50;;;19.50;80.00;;;;;;4204034;28;20055;-51
2023/08/28 06:22:56;;;;;;;3.38;1.50;;;19.50;80.20;;;;;;4198065;28;20182;-49
2023/08/28 06:25:37;;;;;;;1.70;1.48;;;19.50;80.30;;;;;;4185416;28;20122;-53
2023/08/28 06:28:18;;;;;;;2.40;1.88;;;19.50;80.50;;;;;;4186670;28;20063;-47
2023/08/28 06:30:59;;;;;;;1.88;1.40;;;19.50;80.60;;;;;;4199951;28;20058;-48
2023/08/28 06:33:41;;;;;;;2.42;1.55;;;19.60;80.80;;;;;;4200504;28;20399;-46
2023/08/28 06:36:23;;;;;;;1.70;1.40;;;19.60;80.80;;;;;;4187099;28;20550;-46
2023/08/28 06:39:04;;;;;;;1.77;1.40;;;19.70;80.90;;;;;;4193015;28;20058;-48
2023/08/28 06:41:46;;;;;;;1.75;1.42;;;19.70;80.90;;;;;;4202382;28;20055;-49
2023/08/28 06:44:27;;;;;;;1.42;1.25;;;19.80;80.70;;;;;;4203839;28;20509;-43
2023/08/28 06:47:08;;;;;;;2.75;1.20;;;19.80;80.90;;;;;;4204081;28;20403;-44
2023/08/28 06:49:50;;;;;;;1.63;1.52;;;19.80;80.60;;;;;;4193268;28;20522;-44
2023/08/28 06:52:31;;;;;;;1.60;1.50;;;19.80;80.60;;;;;;4203225;28;20411;-44
2023/08/28 06:55:12;;;;;;;1.48;1.38;;;19.80;80.70;;;;;;4203378;28;20084;-40
2023/08/28 06:57:54;;;;;;;3.10;1.17;;;19.80;80.70;;;;;;4202806;28;20059;-44
2023/08/28 07:00:35;;;;;;;1.63;1.20;;;19.90;81.10;;;;;;4196622;28;20051;-45
2023/08/28 07:03:16;;;;;;;;;;;19.90;81.40;;;;;;4203342;28;20182;-47
2023/08/28 07:05:58;;;;;;;3.55;1.33;;;20.00;81.40;;;;;;4202504;28;19977;-44
2023/08/28 07:08:39;;;;;;;1.60;1.40;;;20.10;81.40;;;;;;4203643;28;20051;-46
2023/08/28 07:11:20;;;;;;;1.63;1.52;;;20.10;81.40;;;;;;4203104;28;20125;-46
2023/08/28 07:14:02;;;;;;;2.05;1.30;;;20.10;81.40;;;;;;4203000;28;20569;-53
2023/08/28 07:16:44;;;;;;;2.70;1.50;;;20.20;81.50;;;;;;4184007;28;20186;-43
2023/08/28 07:19:25;;;;;;;3.30;1.40;;;20.20;81.40;;;;;;4194241;28;20531;-43
2023/08/28 07:22:08;;;;;;;2.90;1.23;;;20.20;81.50;;;;;;4193314;28;20078;-44
2023/08/28 07:24:49;;;;;;;1.30;1.20;;;20.30;81.50;;;;;;4195274;28;20132;-43
2023/08/28 07:27:30;;;;;;;2.63;1.20;;;20.30;81.40;;;;;;4192061;28;20055;-46
2023/08/28 07:30:12;;;;;;;2.97;1.25;;;20.30;81.30;;;;;;4188189;28;20054;-43
2023/08/28 07:32:54;;;;;;;2.95;1.40;;;20.30;81.20;;;;;;4197182;28;20066;-47
2023/08/28 07:35:36;;;;;;;1.27;1.17;;;20.40;81.20;;;;;;4191282;28;20132;-44
2023/08/28 07:38:18;;;;;;;;;;;20.40;81.10;;;;;;4190120;28;20189;-42
2023/08/28 07:40:59;;;;;;;1.88;1.02;;;20.40;81.10;;;;;;4196966;28;19930;-45
2023/08/28 07:43:41;;;;;;;1.27;1.25;;;20.40;81.00;;;;;;4194792;28;20051;-43
2023/08/28 07:46:22;;;;;;;1.42;1.33;;;20.50;80.90;;;;;;4204179;28;20070;-44
2023/08/28 07:49:03;;;;;;;2.47;1.33;;;20.50;80.80;;;;;;4202230;28;20061;-43
2023/08/28 07:51:44;;;;;;;;;;;20.50;80.70;;;;;;4188085;28;20059;-44
2023/08/28 07:54:27;;;;;;;2.03;1.37;;;20.50;80.70;;;;;;4188437;28;19931;-43
2023/08/28 07:57:07;;;;;;;3.17;1.10;;;20.50;80.70;;;;;;4187346;28;20051;-42
2023/08/28 07:59:48;;;;;;;3.20;1.23;;;20.50;80.70;;;;;;4192187;28;20512;-42
2023/08/28 08:02:30;;;;;;;2.78;1.20;;;20.50;80.70;;;;;;4187067;28;20056;-46
2023/08/28 08:05:11;;;;;;;1.83;1.00;;;20.50;80.70;;;;;;4190648;28;20101;-42
2023/08/28 08:07:53;;;;;;;0.90;0.90;;;20.50;80.80;;;;;;4189173;28;20101;-46
2023/08/28 08:10:36;;;;;;;2.50;0.90;;;20.50;80.80;;;;;;4187782;28;20052;-43
2023/08/28 08:13:18;;;;;;;1.33;1.00;;;20.50;80.70;;;;;;4191571;28;20055;-46
2023/08/28 08:15:59;;;;;;;3.03;1.02;;;20.60;80.80;;;;;;4193491;28;20165;-46
2023/08/28 08:18:40;;;;;;;1.92;1.83;;;20.60;80.90;;;;;;4196967;28;20225;-43
2023/08/28 08:21:21;;;;;;;2.03;1.48;;;20.60;81.00;;;;;;4186311;28;20411;-45
2023/08/28 08:24:02;;;;;;;3.05;1.10;;;20.70;80.90;;;;;;4186929;28;20055;-43
2023/08/28 08:26:45;;;;;;;1.65;1.23;;;20.70;81.10;;;;;;4197506;28;20047;-47
2023/08/28 08:29:26;;;;;;;5.18;1.15;;;20.70;81.20;;;;;;4198592;28;20125;-41
2023/08/28 08:32:08;;;;;;;1.50;1.33;;;20.80;81.40;;;;;;4202686;28;20062;-42
2023/08/28 08:34:49;;;;;;;;;;;20.80;81.40;;;;;;4191704;28;20060;-43
2023/08/28 08:37:30;;;;;;;2.53;1.37;;;20.80;81.40;;;;;;4184500;28;19931;-46
2023/08/28 08:40:14;;;;;;;1.58;0.90;;;20.90;81.40;;;;;;4190194;28;20093;-43
2023/08/28 08:42:57;;;;;;;2.00;1.08;;;20.90;81.40;;;;;;4188507;28;20129;-43
2023/08/28 08:45:38;;;;;;;2.47;0.80;;;20.90;81.30;;;;;;4185434;28;20415;-42
2023/08/28 08:48:21;;;;;;;2.20;0.98;;;21.00;81.20;;;;;;4197451;28;20506;-46
2023/08/28 08:51:04;;;;;;;3.90;1.15;;;21.00;80.70;;;;;;4194408;28;20051;-41
2023/08/28 08:53:48;;;;;;;1.95;0.90;;;21.00;80.20;;;;;;4198613;28;20406;-44
2023/08/28 08:56:32;;;;;;;1.65;0.77;;;21.00;80.00;;;;;;4196944;28;20143;-42
2023/08/28 08:59:16;;;;;;;1.77;0.80;;;21.10;80.00;;;;;;4202360;28;20158;-41
2023/08/28 09:02:00;;;;;;;2.55;0.88;;;21.10;79.80;;;;;;4186097;28;20097;-46
2023/08/28 09:04:42;;;;;;;1.27;0.85;;;21.10;79.40;;;;;;4196963;28;20129;-42
2023/08/28 09:07:24;;;;;;;2.42;0.77;;;21.10;79.40;;;;;;4187897;28;20403;-49
2023/08/28 09:10:07;;;;;;;0.70;0.70;;;21.20;79.00;;;;;;4199690;28;20613;-51
2023/08/28 09:12:49;;;;;;;1.45;0.98;;;21.20;78.70;;;;;;4199118;28;20050;-48
2023/08/28 09:15:31;;;;;;;3.88;1.10;;;21.20;78.60;;;;;;4185832;28;20048;-53
2023/08/28 09:18:13;;;;;;;2.20;1.20;;;21.20;78.20;;;;;;4184207;28;20083;-52
2023/08/28 09:21:07;;;;;;;1.05;0.77;;;21.20;78.00;;;;;;4199847;28;20055;-51
2023/08/28 09:23:50;;;;;;;1.98;0.98;;;21.30;78.00;;;;;;4185185;28;20047;-51
2023/08/28 09:26:31;;;;;;;1.42;0.95;;;21.30;77.70;;;;;;4201686;28;20133;-51
2023/08/28 09:29:12;;;;;;;2.08;1.02;;;21.30;78.20;;;;;;4194990;28;20063;-54
2023/08/28 09:32:11;;;;;;;2.70;0.82;;;21.30;77.40;;;;;;4196277;28;20093;-51
2023/08/28 09:35:08;;;;;;;1.38;0.90;;;21.30;76.60;;;;;;4184228;28;20067;-53
2023/08/28 09:37:57;;;;;;;1.40;0.70;;;21.40;76.50;;;;;;4195946;28;20051;-47
2023/08/28 09:40:40;;;;;;;1.30;0.65;;;21.30;75.90;;;;;;4199445;28;20058;-52
2023/08/28 09:43:20;;;;;;;1.67;0.70;;;21.40;75.80;;;;;;4193899;28;20056;-48
2023/08/28 09:46:02;;;;;;;0.52;0.52;;;21.40;75.50;;;;;;4201449;28;20052;-52
2023/08/28 09:48:45;;;;;;;1.38;0.75;;;21.40;74.90;;;;;;4187948;28;20058;-51
2023/08/28 09:51:40;;;;;;;1.02;0.65;;;21.40;74.50;;;;;;4190897;28;20055;-53
2023/08/28 09:54:24;;;;;;;0.82;0.60;;;21.40;73.70;;;;;;4185347;28;20182;-55
2023/08/28 09:57:15;;;;;;;2.97;0.85;;;21.40;73.70;;;;;;4183990;28;20055;-55
2023/08/28 09:59:56;;;;;;;;;;;21.40;73.90;;;;;;4188746;28;20058;-45
2023/08/28 10:02:37;;;;;;;2.65;0.88;;;21.40;74.40;;;;;;4192445;28;19930;-53
2023/08/28 10:05:22;;;;;;;2.15;0.95;;;21.30;74.90;;;;;;4185813;28;20091;-54
2023/08/28 10:08:07;;;;;;;2.95;0.90;;;21.30;75.80;;;;;;4190207;28;20075;-50
2023/08/28 10:10:48;;;;;;;2.53;0.85;;;21.40;74.00;;;;;;4184897;28;20136;-52
2023/08/28 10:13:32;;;;;;;2.92;1.05;;;21.30;74.50;;;;;;4200948;28;20498;-53
2023/08/28 10:16:18;;;;;;;1.77;1.10;;;21.30;74.40;;;;;;4200242;28;20055;-54
2023/08/28 10:19:04;;;;;;;2.05;0.80;;;21.30;74.80;;;;;;4183458;28;20499;-51
2023/08/28 10:21:47;;;;;;;2.55;0.73;;;21.30;76.00;;;;;;4198634;28;20055;-55
2023/08/28 10:24:31;;;;;;;2.42;0.70;;;21.30;75.60;;;;;;4193837;28;20103;-53
2023/08/28 10:27:14;;;;;;;0.93;0.77;;;21.30;76.00;;;;;;4199731;28;20039;-53
2023/08/28 10:29:55;;;;;;;2.85;0.95;;;21.30;76.30;;;;;;4189849;28;20059;-51
2023/08/28 10:32:37;;;;;;;2.80;0.80;;;21.20;76.60;;;;;;4185592;28;20074;-55
2023/08/28 10:35:23;;;;;;;1.17;0.80;;;21.20;76.90;;;;;;4198324;28;20063;-54
2023/08/28 10:38:06;;;;;;;1.13;0.98;;;21.20;77.40;;;;;;4200602;28;20062;-54
2023/08/28 10:40:49;;;;;;;0.80;0.70;;;21.10;77.60;;;;;;4191589;28;20124;-53
2023/08/28 10:43:31;;;;;;;2.10;1.13;;;21.10;78.00;;;;;;4200120;28;20570;-52
2023/08/28 10:46:12;;;;;;;1.48;1.23;;;21.10;78.40;;;;;;4187545;28;20156;-54
2023/08/28 10:48:57;;;;;;;1.10;1.00;;;21.10;78.60;;;;;;4192574;28;20048;-54
2023/08/28 10:51:38;;;;;;;1.30;0.77;;;21.10;78.90;;;;;;4192376;28;20046;-56
2023/08/28 10:54:20;;;;;;;1.38;1.10;;;21.10;79.00;;;;;;4201224;28;20043;-56
2023/08/28 10:57:05;;;;;;;0.80;0.80;;;21.10;79.10;;;;;;4190275;28;20059;-54
2023/08/28 10:59:48;;;;;;;1.67;1.10;;;21.00;79.00;;;;;;4195590;28;20540;-54
2023/08/28 11:03:06;;;;;;;1.17;0.70;;;21.10;79.20;;;;;;4189012;28;20164;-53
2023/08/28 11:05:47;;;;;;;1.40;0.70;;;21.00;79.60;;;;;;4214243;28;20092;-54
2023/08/28 11:08:28;;;;;;;2.35;0.70;;;21.10;79.30;;;;;;4204145;28;20054;-53
2023/08/28 11:11:14;;;;;;;1.55;1.00;;;21.10;79.40;;;;;;4188464;28;20055;-51
2023/08/28 11:14:02;;;;;;;2.25;0.70;;;21.00;79.60;;;;;;4204324;28;20096;-52
2023/08/28 11:16:44;;;;;;;3.42;1.80;;;21.10;79.30;;;;;;4187781;28;20137;-42
2023/08/28 11:19:25;;;;;;;4.20;1.00;;;21.10;79.00;;;;;;4192162;28;20075;-43
2023/08/28 11:22:07;;;;;;;1.00;0.75;;;21.10;78.70;;;;;;4192576;28;20051;-55
2023/08/28 11:24:53;;;;;;;0.90;0.70;;;21.10;78.90;;;;;;4194008;28;20188;-53
2023/08/28 11:27:48;;;;;;;1.10;1.08;;;21.10;79.40;;;;;;4203813;28;20051;-52
2023/08/28 11:30:30;;;;;;;1.05;0.90;;;21.10;80.50;;;;;;4192448;28;20075;-49
2023/08/28 11:33:12;;;;;;;3.17;1.08;;;21.20;79.80;;;;;;4194489;28;20063;-50
2023/08/28 11:35:58;;;;;;;1.38;0.90;;;21.20;79.80;;;;;;4201113;28;20079;-53
2023/08/28 11:38:40;;;;;;;2.80;1.10;;;21.20;79.80;;;;;;4192169;28;20082;-50
2023/08/28 11:41:22;;;;;;;3.25;1.98;;;21.30;80.00;;;;;;4196856;28;20059;-53
2023/08/28 11:44:11;;;;;;;;;;;21.30;80.00;;;;;;4191878;28;20133;-52
2023/08/28 11:46:55;;;;;;;2.30;1.17;;;21.30;79.70;;;;;;4195768;28;19931;-51
2023/08/28 11:49:38;;;;;;;1.70;1.10;;;21.40;79.40;;;;;;4192204;28;20218;-51
2023/08/28 11:52:18;;;;;;;0.80;0.80;;;21.40;79.30;;;;;;4187859;28;20055;-48
2023/08/28 11:55:03;;;;;;;1.63;0.77;;;21.50;79.00;;;;;;4186387;28;20439;-48
2023/08/28 11:57:45;;;;;;;2.22;0.70;;;21.50;79.00;;;;;;4187000;28;20085;-40
2023/08/28 12:00:28;;;;;;;0.70;0.60;;;21.50;78.90;;;;;;4202802;28;20537;-39
2023/08/28 12:03:17;;;;;;;0.73;0.68;;;21.50;78.40;;;;;;4199110;28;20102;-40
2023/08/28 12:06:06;;;;;;;1.48;0.65;;;21.50;77.50;;;;;;4188648;28;20091;-40
2023/08/28 12:08:48;;;;;;;3.47;0.70;;;21.50;77.40;;;;;;4186572;28;20129;-40
2023/08/28 12:11:29;;;;;;;2.15;0.80;;;21.50;77.60;;;;;;4195817;28;20055;-40
2023/08/28 12:14:16;;;;;;;;;;;21.50;77.70;;;;;;4188191;28;20067;-40
2023/08/28 12:17:01;;;;;;;0.50;0.50;;;21.50;78.80;;;;;;4191504;28;19931;-41
2023/08/28 12:19:43;;;;;;;1.00;0.63;;;21.50;77.80;;;;;;4191727;28;20662;-40
2023/08/28 12:22:25;;;;;;;0.60;0.60;;;21.50;77.40;;;;;;4189212;28;20190;-48
2023/08/28 12:25:06;;;;;;;0.80;0.60;;;21.50;77.70;;;;;;4191750;28;20059;-51
2023/08/28 12:27:47;;;;;;;1.80;0.60;;;21.50;77.80;;;;;;4186290;28;20130;-50
2023/08/28 12:30:29;;;;;;;1.65;0.90;;;21.50;77.70;;;;;;4190977;28;20051;-51
2023/08/28 12:33:12;;;;;;;5.30;1.10;;;21.50;77.70;;;;;;4197245;28;20063;-50
2023/08/28 12:35:54;;;;;;;0.50;0.50;;;21.50;77.80;;;;;;4193186;28;20071;-47
2023/08/28 12:38:50;;;;;;;0.52;0.50;;;21.50;77.80;;;;;;4187123;28;20129;-51
2023/08/28 12:41:34;;;;;;;1.00;0.90;;;21.60;77.50;;;;;;4194970;28;20052;-47
2023/08/28 12:44:15;;;;;;;0.98;0.50;;;21.60;77.20;;;;;;4188321;28;20063;-50
2023/08/28 12:46:57;;;;;;;1.17;0.63;;;21.60;77.20;;;;;;4188732;28;20166;-50
2023/08/28 12:49:40;;;;;;;0.50;0.50;;;21.70;77.30;;;;;;4188902;28;20471;-40
2023/08/28 12:52:21;;;;;;;2.78;0.85;;;21.60;76.90;;;;;;4196785;28;20055;-40
2023/08/28 12:55:04;;;;;;;0.73;0.70;;;21.70;76.80;;;;;;4204664;28;20055;-50
2023/08/28 12:57:45;;;;;;;1.48;0.82;;;21.70;76.80;;;;;;4191586;28;20096;-41
2023/08/28 13:00:30;;;;;;;3.10;0.73;;;21.70;77.00;;;;;;4204728;28;20494;-40
2023/08/28 13:03:11;;;;;;;1.65;1.48;;;21.70;77.10;;;;;;4192443;28;20051;-41
2023/08/28 13:05:54;;;;;;;;;;;21.70;76.80;;;;;;4203937;28;20568;-44
2023/08/28 13:08:34;;;;;;;3.05;1.10;;;21.70;77.00;;;;;;4203778;28;19942;-43
2023/08/28 13:11:15;;;;;;;;;;;21.70;76.70;;;;;;4203716;28;20580;-47
2023/08/28 13:13:58;;;;;;;4.55;1.45;;;21.70;76.40;;;;;;4205431;28;20073;-46
2023/08/28 13:16:41;;;;;;;2.55;1.00;;;21.70;76.80;;;;;;4204605;28;20078;-46
2023/08/28 13:19:26;;;;;;;1.60;0.82;;;21.70;77.00;;;;;;4205323;28;20047;-46
2023/08/28 13:22:08;;;;;;;;;;;21.70;77.70;;;;;;4202718;28;20063;-45
2023/08/28 13:24:49;;;;;;;1.52;1.00;;;21.70;78.70;;;;;;4202468;28;19930;-41
2023/08/28 13:27:30;;;;;;;2.33;1.25;;;21.70;77.90;;;;;;4202604;28;20055;-41
2023/08/28 13:30:13;;;;;;;1.60;1.20;;;21.70;77.60;;;;;;4202919;28;20059;-41
2023/08/28 13:32:55;;;;;;;1.65;1.05;;;21.80;77.40;;;;;;4204241;28;20078;-47
2023/08/28 13:35:37;;;;;;;2.40;1.15;;;21.80;77.30;;;;;;4204403;28;20047;-41
2023/08/28 13:38:20;;;;;;;1.17;1.05;;;21.80;76.80;;;;;;4204485;28;20081;-41
2023/08/28 13:41:02;;;;;;;2.60;1.20;;;21.80;76.80;;;;;;4204579;28;20078;-44
2023/08/28 13:43:42;;;;;;;;;;;21.80;77.00;;;;;;4205188;28;20586;-43
2023/08/28 13:46:23;;;;;;;3.40;1.17;;;21.80;77.00;;;;;;4204797;28;19965;-41
2023/08/28 13:49:04;;;;;;;1.80;0.80;;;21.80;76.10;;;;;;4204279;28;20404;-43
2023/08/28 13:51:45;;;;;;;1.60;0.85;;;21.90;75.30;;;;;;4204855;28;20494;-42
2023/08/28 13:54:28;;;;;;;1.52;1.20;;;21.90;75.30;;;;;;4191323;28;20062;-47
2023/08/28 13:57:08;;;;;;;1.67;0.80;;;21.90;75.50;;;;;;4203701;28;20144;-49
2023/08/28 13:59:50;;;;;;;3.88;1.20;;;21.90;75.50;;;;;;4204241;28;20051;-45
2023/08/28 14:02:31;;;;;;;0.88;0.88;;;21.90;75.30;;;;;;4187636;28;20056;-47
2023/08/28 14:05:13;;;;;;;4.30;0.80;;;21.90;75.20;;;;;;4198582;28;20460;-49
2023/08/28 14:07:54;;;;;;;3.83;1.30;;;21.90;74.10;;;;;;4204361;28;20047;-49
2023/08/28 14:10:36;;;;;;;1.27;1.02;;;21.90;75.00;;;;;;4204446;28;20078;-46
2023/08/28 14:13:18;;;;;;;2.55;1.15;;;21.90;74.30;;;;;;4204110;28;20051;-41